Mc Cutchenville, Ohio
Current Conditions -  °F | °C
As of 10:53 AM on Saturday 25 Oct 2014 (Local Time) from KFDY Reporting Station
Haze Haze  
Wind Chill: 63°   Ceiling: Unl
Heat Index: 63°   Visibility: 4mi
Dew Point: 52°   Wind: 15mph
Humidity: 67%   Direction: 250°WSW
Pressure: 29.88"   Gusts: NA
Location:  40.988°N, 83.2626°W
Report Text: KFDY 251453Z AUTO 25013KT 4SM HZ FEW034 17/11 A2988 RMK AO2 SLP115 T01720111 58005
Loading
Personal Weather Stations






























Interactive Weather Map
Tropical Storm Tracking
New forecast layout! Learn more

10-Day Weather Forecast

Advertisements
Track Severe Weather on mobile